Pagrindinis puslapis
METAR-TAF:

METAR-TAF

Oro uostai :

Malakula, Vanuatu

platuma: 16-27-26S, ilguma: 167-49-42E, Aukštis: 2 m

METAR: trūkstamas

Laikas: 21:11 (10:11 UTC)

Prognozė

Ataskaita buvo paskelbta 5 valandos ir 11 minutes, ne 05:00 UTC
Prognozė galioja nuo 22 metu 06 UTC su 23 metu 06 UTC
Vėjas 7 kt iš Rytų/Pietryčių
Matomumas 10 km arba daugiau
Išsisklaidę debesys ne aukštis 2000 ft
Su prošvaistėmis ne aukštis 4000 ft
Tikimybė 30%
tarp IN ir TE UTC
Matomumas: 9000 m
Su prošvaistėmis ne aukštis 1800 ft
lietus,

TAF: NVSL 220500Z 2206/2306 12007KT 9999 SCT020 BKN040 PROB30 INTER 2206/2212 9000 SHRA BKN018

Orai ataskaitas ir orų prognozės (METAR, TAF).

turimą stotys yra geltonos ir raudonos taškus žemėlapyje.

Perkelti pele per norėdami pamatyti stoties vardą.

Tada spustelėkite, norėdami matyti oro stebėjimo ir prognozės.

Norėdami pakeisti žemėlapį: spustelėkite ant žalios mygtukų su juodo kryžiaus žemyn,; žalią mygtuką su brūkšneliu, jei norite nutolinti; arba žalių rodyklių gretimoms žemėlapius.


METAR-TAF: